Wiscasset, Maine
Current Conditions -  °F | °C
As of 5:26 AM on Thursday 27 Nov 2014 (Local Time) from KIWI Reporting Station
Light Snow Light Snow  
Wind Chill: -6°   Ceiling: 2900
Heat Index: -1°   Visibility: 3mi
Dew Point: -3°   Wind: 9mph
Humidity: 88%   Direction: 340°NNW
Pressure: 29.74"   Gusts: NA
Location:  44°N, 69.66°W
Report Text: KIWI 271026Z AUTO 34008KT 300V020 3SM -SN BR FEW014 SCT021 OVC029 M01/M03 A2974 RMK AO2 P0001 T10111028
Loading
Personal Weather Stations






























Interactive Weather Map New forecast layout! Learn more

10-Day Weather Forecast

Advertisements
Track Severe Weather on mobile